createdAt,value
2022-10-12T00:00:11.345Z,99.90
2022-10-12T00:02:39.119Z,99.90
2022-10-12T00:05:09.009Z,99.90
2022-10-12T00:07:37.047Z,99.90
2022-10-12T00:10:06.044Z,99.90
2022-10-12T00:12:34.832Z,99.90
2022-10-12T00:15:02.685Z,99.90
2022-10-12T00:17:30.526Z,99.90
2022-10-12T00:19:58.324Z,99.90
2022-10-12T00:22:27.470Z,99.90
2022-10-12T00:24:55.239Z,99.90
2022-10-12T00:27:23.101Z,99.90
2022-10-12T00:29:50.873Z,99.90
2022-10-12T00:32:18.796Z,99.90
2022-10-12T00:34:46.562Z,99.90
2022-10-12T00:37:14.336Z,99.90
2022-10-12T00:39:43.550Z,99.90
2022-10-12T00:42:12.658Z,99.90
2022-10-12T00:44:43.742Z,99.90
2022-10-12T00:47:20.852Z,99.90
2022-10-12T00:49:53.196Z,99.90
2022-10-12T00:52:26.682Z,99.90
2022-10-12T00:54:57.063Z,99.90
2022-10-12T00:57:26.050Z,99.90
2022-10-12T00:59:57.091Z,99.90
2022-10-12T01:02:27.127Z,99.90
2022-10-12T01:04:55.231Z,99.90
2022-10-12T01:07:23.112Z,99.90
2022-10-12T01:09:51.430Z,99.90
2022-10-12T01:12:20.921Z,99.90
2022-10-12T01:14:48.774Z,99.90
2022-10-12T01:17:30.401Z,99.90
2022-10-12T01:20:38.354Z,99.90
2022-10-12T01:23:26.631Z,99.90
2022-10-12T01:26:09.099Z,99.90
2022-10-12T01:28:47.893Z,99.90
2022-10-12T01:31:30.059Z,99.90
2022-10-12T01:34:05.188Z,99.90
2022-10-12T01:36:36.967Z,99.90
2022-10-12T01:39:13.489Z,99.90
2022-10-12T01:41:45.851Z,99.90
2022-10-12T01:44:13.654Z,99.90
2022-10-12T01:46:47.540Z,99.90
2022-10-12T01:49:18.938Z,99.90
2022-10-12T01:52:01.232Z,99.90
2022-10-12T01:54:40.643Z,99.90
2022-10-12T01:57:16.305Z,99.90
2022-10-12T01:59:51.543Z,99.90
2022-10-12T02:02:29.975Z,99.90
2022-10-12T02:05:03.672Z,99.90
2022-10-12T02:07:42.214Z,99.90
2022-10-12T02:10:15.310Z,99.90
2022-10-12T02:12:45.336Z,99.90
2022-10-12T02:15:14.985Z,99.90
2022-10-12T02:17:47.208Z,99.90
2022-10-12T02:20:18.483Z,99.90
2022-10-12T02:22:50.004Z,99.90
2022-10-12T02:25:22.002Z,99.90
2022-10-12T02:27:56.135Z,99.90
2022-10-12T02:30:25.477Z,99.90
2022-10-12T02:33:00.103Z,99.90
2022-10-12T02:35:35.799Z,99.90
2022-10-12T02:38:10.518Z,99.90
2022-10-12T02:40:42.519Z,99.90
2022-10-12T02:43:14.809Z,99.90
2022-10-12T02:45:46.056Z,99.90
2022-10-12T02:48:18.608Z,99.90
2022-10-12T02:50:49.198Z,99.90
2022-10-12T02:53:17.772Z,99.90
2022-10-12T02:55:50.518Z,99.90
2022-10-12T02:58:18.799Z,99.90
2022-10-12T03:00:46.702Z,99.90
2022-10-12T03:03:15.800Z,99.90
2022-10-12T03:05:44.843Z,99.90
2022-10-12T03:08:12.974Z,99.90
2022-10-12T03:10:40.743Z,99.90
2022-10-12T03:13:09.036Z,99.90
2022-10-12T03:15:36.807Z,99.90
2022-10-12T03:18:04.748Z,99.90
2022-10-12T03:20:33.945Z,99.90
2022-10-12T03:23:01.788Z,99.90
2022-10-12T03:25:29.570Z,99.90
2022-10-12T03:27:57.334Z,99.90
2022-10-12T03:30:25.147Z,99.90
2022-10-12T03:32:52.914Z,99.90
2022-10-12T03:35:20.707Z,99.90
2022-10-12T03:37:49.795Z,99.90
2022-10-12T03:40:17.768Z,99.90
2022-10-12T03:42:45.689Z,99.90
2022-10-12T03:45:13.491Z,99.90
2022-10-12T03:47:41.482Z,99.90
2022-10-12T03:50:10.196Z,99.90
2022-10-12T03:52:38.148Z,99.90
2022-10-12T03:55:08.492Z,99.90
2022-10-12T03:57:36.552Z,99.90
2022-10-12T04:00:05.939Z,99.90
2022-10-12T04:02:33.695Z,99.90
2022-10-12T04:05:01.808Z,99.90
2022-10-12T04:07:29.581Z,99.90
2022-10-12T04:09:57.352Z,99.90
2022-10-12T04:12:26.640Z,99.90
2022-10-12T04:14:54.420Z,99.90
2022-10-12T04:17:22.270Z,99.90
2022-10-12T04:19:50.053Z,99.90
2022-10-12T04:22:17.884Z,99.90
2022-10-12T04:24:45.681Z,99.90
2022-10-12T04:27:13.480Z,99.90
2022-10-12T04:29:42.729Z,99.90
2022-10-12T04:32:12.646Z,99.90
2022-10-12T04:34:40.809Z,99.90
2022-10-12T04:37:08.604Z,99.90
2022-10-12T04:39:36.381Z,99.90
2022-10-12T04:42:04.372Z,99.90
2022-10-12T04:44:32.567Z,99.90
2022-10-12T04:47:06.431Z,99.90
2022-10-12T04:49:34.191Z,99.90
2022-10-12T04:52:01.959Z,99.90
2022-10-12T04:54:29.744Z,99.90
2022-10-12T04:56:57.504Z,99.90
2022-10-12T04:59:25.455Z,99.90
2022-10-12T05:01:54.271Z,99.90
2022-10-12T05:04:23.604Z,99.90
2022-10-12T05:06:51.534Z,99.90
2022-10-12T05:09:19.506Z,99.90
2022-10-12T05:11:47.304Z,99.90
2022-10-12T05:14:15.084Z,99.90
2022-10-12T05:16:42.977Z,99.90
2022-10-12T05:19:10.824Z,99.90
2022-10-12T05:21:40.390Z,99.90
2022-10-12T05:24:09.016Z,99.90
2022-10-12T05:26:38.077Z,99.90
2022-10-12T05:29:09.617Z,99.90
2022-10-12T05:31:37.386Z,99.90
2022-10-12T05:34:05.173Z,99.90
2022-10-12T05:36:33.037Z,99.90
2022-10-12T05:39:02.185Z,99.90
2022-10-12T05:41:30.038Z,99.90
2022-10-12T05:43:57.819Z,99.90
2022-10-12T05:46:25.589Z,99.90
2022-10-12T05:48:53.360Z,99.90
2022-10-12T05:51:24.124Z,99.90
2022-10-12T05:53:56.775Z,99.90
2022-10-12T05:56:25.928Z,99.90
2022-10-12T05:58:53.701Z,99.90
2022-10-12T06:01:21.536Z,99.90
2022-10-12T06:03:49.353Z,99.90
2022-10-12T06:06:17.405Z,99.90
2022-10-12T06:08:45.183Z,99.90
2022-10-12T06:11:13.275Z,99.90
2022-10-12T06:13:42.424Z,99.90
2022-10-12T06:16:10.223Z,99.90
2022-10-12T06:18:37.996Z,99.90
2022-10-12T06:21:32.014Z,99.90
2022-10-12T06:23:53.855Z,99.90
2022-10-12T06:26:21.657Z,99.90
2022-10-12T06:28:50.893Z,99.90
2022-10-12T06:31:18.644Z,99.90
2022-10-12T06:33:46.432Z,99.90
2022-10-12T06:36:14.217Z,99.90
2022-10-12T06:38:41.964Z,98.90
2022-10-12T06:41:09.739Z,97.70
2022-10-12T06:43:37.504Z,97.30
2022-10-12T06:46:06.941Z,97.30
2022-10-12T06:48:34.705Z,96.40
2022-10-12T06:51:02.548Z,96.00
2022-10-12T06:53:32.784Z,95.50
2022-10-12T06:56:00.840Z,94.60
2022-10-12T06:58:28.587Z,93.60
2022-10-12T07:00:56.336Z,92.10
2022-10-12T07:03:25.456Z,92.20
2022-10-12T07:05:53.245Z,91.00
2022-10-12T07:08:21.022Z,90.40
2022-10-12T07:10:48.844Z,90.40
2022-10-12T07:13:16.614Z,89.50
2022-10-12T07:15:50.290Z,88.80
2022-10-12T07:18:18.433Z,88.20
2022-10-12T07:20:47.697Z,88.10
2022-10-12T07:23:15.482Z,87.10
2022-10-12T07:25:50.104Z,87.70
2022-10-12T07:28:18.140Z,86.80
2022-10-12T07:30:46.446Z,86.20
2022-10-12T07:33:14.542Z,85.10
2022-10-12T07:36:03.222Z,85.30
2022-10-12T07:38:32.027Z,85.50
2022-10-12T07:41:01.119Z,84.80
2022-10-12T07:43:29.104Z,85.00
2022-10-12T07:45:57.463Z,86.10
2022-10-12T07:48:25.244Z,85.00
2022-10-12T07:50:53.033Z,83.00
2022-10-12T07:53:20.951Z,82.70
2022-10-12T07:55:50.337Z,82.70
2022-10-12T07:58:18.136Z,80.80
2022-10-12T08:00:45.898Z,82.10
2022-10-12T08:03:13.652Z,81.70
2022-10-12T08:05:41.681Z,81.20
2022-10-12T08:08:09.496Z,82.60
2022-10-12T08:10:37.469Z,81.70
2022-10-12T08:13:06.605Z,81.30
2022-10-12T08:15:34.391Z,81.00
2022-10-12T08:18:02.286Z,81.30
2022-10-12T08:20:30.127Z,81.20
2022-10-12T08:22:57.879Z,81.00
2022-10-12T08:25:25.622Z,80.80
2022-10-12T08:27:53.368Z,81.00
2022-10-12T08:30:26.769Z,79.30
2022-10-12T08:32:54.591Z,79.90
2022-10-12T08:35:22.477Z,80.40
2022-10-12T08:37:50.261Z,78.90
2022-10-12T08:40:25.821Z,79.20
2022-10-12T08:43:00.281Z,78.50
2022-10-12T08:45:48.602Z,78.30
2022-10-12T08:48:19.435Z,77.90
2022-10-12T08:50:51.052Z,77.90
2022-10-12T08:53:25.597Z,77.10
2022-10-12T08:55:53.800Z,77.70
2022-10-12T08:58:25.437Z,78.20
2022-10-12T09:00:58.965Z,76.20
2022-10-12T09:03:40.791Z,75.20
2022-10-12T09:06:14.526Z,75.90
2022-10-12T09:08:58.686Z,76.50
2022-10-12T09:11:43.601Z,76.50
2022-10-12T09:14:16.831Z,77.70
2022-10-12T09:16:48.843Z,77.00
2022-10-12T09:19:20.440Z,78.20
2022-10-12T09:21:50.213Z,76.00
2022-10-12T09:24:20.330Z,75.40
2022-10-12T09:26:51.815Z,73.70
2022-10-12T09:29:28.364Z,73.60
2022-10-12T09:32:26.224Z,73.40
2022-10-12T09:34:54.800Z,74.80
2022-10-12T09:37:25.688Z,74.50
2022-10-12T09:39:53.716Z,74.20
2022-10-12T09:42:21.588Z,73.50
2022-10-12T09:44:50.726Z,72.90
2022-10-12T09:47:28.282Z,73.00
2022-10-12T09:50:00.800Z,73.00
2022-10-12T09:52:31.480Z,73.50
2022-10-12T09:55:04.779Z,73.10
2022-10-12T09:57:36.893Z,73.30
2022-10-12T10:00:08.521Z,74.20
2022-10-12T10:02:49.317Z,72.80
2022-10-12T10:05:25.956Z,73.50
2022-10-12T10:07:54.277Z,74.00
2022-10-12T10:10:29.385Z,74.40
2022-10-12T10:13:01.224Z,73.30
2022-10-12T10:15:31.632Z,72.50
2022-10-12T10:18:03.196Z,72.90
2022-10-12T10:20:34.453Z,74.90
2022-10-12T10:23:05.058Z,73.30
2022-10-12T10:25:34.101Z,73.70
2022-10-12T10:28:23.366Z,72.10
2022-10-12T10:31:02.328Z,71.80
2022-10-12T10:33:33.136Z,71.10
2022-10-12T10:36:04.664Z,72.80
2022-10-12T10:38:45.825Z,72.50
2022-10-12T10:41:18.254Z,71.60
2022-10-12T10:43:49.128Z,72.70
2022-10-12T10:46:23.004Z,71.50
2022-10-12T10:48:57.684Z,71.20
2022-10-12T10:51:41.612Z,71.70
2022-10-12T10:54:17.436Z,70.60
2022-10-12T10:56:46.862Z,73.50
2022-10-12T10:59:21.482Z,71.00
2022-10-12T11:01:53.870Z,70.50
2022-10-12T11:04:28.916Z,71.30
2022-10-12T11:07:00.532Z,71.30
2022-10-12T11:09:30.320Z,70.00
2022-10-12T11:12:02.516Z,69.50
2022-10-12T11:14:36.032Z,70.70
2022-10-12T11:17:07.803Z,71.30
2022-10-12T11:19:43.066Z,70.90
2022-10-12T11:22:16.306Z,70.00
2022-10-12T11:24:48.204Z,68.80
2022-10-12T11:27:20.905Z,68.90
2022-10-12T11:30:02.925Z,71.10
2022-10-12T11:32:39.317Z,70.70
2022-10-12T11:35:15.892Z,70.80
2022-10-12T11:37:48.187Z,68.50
2022-10-12T11:40:30.973Z,68.90
2022-10-12T11:43:08.208Z,69.40
2022-10-12T11:45:41.198Z,69.30
2022-10-12T11:48:14.705Z,68.60
2022-10-12T11:50:48.208Z,69.20
2022-10-12T11:53:24.326Z,68.10
2022-10-12T11:56:02.437Z,68.90
2022-10-12T11:58:55.951Z,66.90
2022-10-12T12:01:50.747Z,67.40
2022-10-12T12:04:47.377Z,64.50
2022-10-12T12:07:44.054Z,65.60
2022-10-12T12:10:51.927Z,67.00
2022-10-12T12:13:23.333Z,66.90
2022-10-12T12:16:29.736Z,66.80
2022-10-12T12:19:19.030Z,66.30
2022-10-12T12:22:26.244Z,66.20
2022-10-12T12:25:16.113Z,66.80
2022-10-12T12:27:46.935Z,64.50
2022-10-12T12:30:36.764Z,65.00
2022-10-12T12:33:17.923Z,65.80
2022-10-12T12:35:55.103Z,65.40
2022-10-12T12:38:28.579Z,65.20
2022-10-12T12:41:04.603Z,65.10
2022-10-12T12:44:03.905Z,64.90
2022-10-12T12:47:33.043Z,66.90
2022-10-12T12:50:00.247Z,67.40
2022-10-12T12:52:30.758Z,68.00
2022-10-12T12:55:21.816Z,68.10
2022-10-12T12:58:03.573Z,68.90
2022-10-12T13:00:38.982Z,68.70
2022-10-12T13:03:38.238Z,68.10
2022-10-12T13:06:49.066Z,69.40
2022-10-12T13:09:36.853Z,68.90
2022-10-12T13:12:16.909Z,67.70
2022-10-12T13:15:04.037Z,68.60
2022-10-12T13:17:59.935Z,67.80
2022-10-12T13:20:31.702Z,68.10
2022-10-12T13:23:02.916Z,67.30
2022-10-12T13:25:34.539Z,68.40
2022-10-12T13:28:04.899Z,66.90
2022-10-12T13:30:40.340Z,67.00
2022-10-12T13:33:19.579Z,67.30
2022-10-12T13:35:49.932Z,68.10
2022-10-12T13:38:23.416Z,67.10
2022-10-12T13:41:02.022Z,69.10
2022-10-12T13:43:37.590Z,68.00
2022-10-12T13:46:07.276Z,67.80
2022-10-12T13:48:58.022Z,67.90
2022-10-12T13:51:26.383Z,68.30
2022-10-12T13:53:54.501Z,68.50
2022-10-12T13:56:24.729Z,68.10
2022-10-12T13:58:57.738Z,68.40
2022-10-12T14:01:27.267Z,68.20
2022-10-12T14:04:04.413Z,68.00
2022-10-12T14:06:34.506Z,67.20
2022-10-12T14:09:09.869Z,67.60
2022-10-12T14:11:38.919Z,68.10
2022-10-12T14:14:07.499Z,68.40
2022-10-12T14:16:36.681Z,68.90
2022-10-12T14:19:20.046Z,68.80
2022-10-12T14:21:49.814Z,68.90
2022-10-12T14:24:20.111Z,68.50
2022-10-12T14:26:55.398Z,69.00
2022-10-12T14:29:29.135Z,68.60
2022-10-12T14:32:00.205Z,68.80
2022-10-12T14:34:37.681Z,69.40
2022-10-12T14:37:19.503Z,69.30
2022-10-12T14:39:49.431Z,69.80
2022-10-12T14:42:22.099Z,69.60
2022-10-12T14:44:50.617Z,69.80
2022-10-12T14:47:23.346Z,69.60
2022-10-12T14:49:52.639Z,70.30
2022-10-12T14:52:23.180Z,70.20
2022-10-12T14:54:52.550Z,70.30
2022-10-12T14:57:21.521Z,70.30
2022-10-12T14:59:49.472Z,70.20
2022-10-12T15:02:21.622Z,70.80
2022-10-12T15:04:50.301Z,71.00
2022-10-12T15:07:20.267Z,71.00
2022-10-12T15:09:48.735Z,71.00
2022-10-12T15:12:18.808Z,70.80
2022-10-12T15:14:47.007Z,71.10
2022-10-12T15:17:16.203Z,71.20
2022-10-12T15:19:46.266Z,71.20
2022-10-12T15:22:17.497Z,71.70
2022-10-12T15:24:45.452Z,71.70
2022-10-12T15:27:13.916Z,71.40
2022-10-12T15:29:42.057Z,71.40
2022-10-12T15:32:12.823Z,72.10
2022-10-12T15:34:40.759Z,71.90
2022-10-12T15:37:10.084Z,72.00
2022-10-12T15:39:37.932Z,71.80
2022-10-12T15:42:06.047Z,72.10
2022-10-12T15:44:40.591Z,72.60
2022-10-12T15:47:10.792Z,73.40
2022-10-12T15:49:38.781Z,74.40
2022-10-12T15:52:10.825Z,74.90
2022-10-12T15:54:39.045Z,75.10
2022-10-12T15:57:07.988Z,74.90
2022-10-12T15:59:36.064Z,75.20
2022-10-12T16:02:03.973Z,75.40
2022-10-12T16:04:31.771Z,75.40
2022-10-12T16:07:01.218Z,75.80
2022-10-12T16:09:30.564Z,76.60
2022-10-12T16:11:58.342Z,76.90
2022-10-12T16:14:26.897Z,77.40
2022-10-12T16:16:55.064Z,77.50
2022-10-12T16:19:22.852Z,78.10
2022-10-12T16:21:50.648Z,78.30
2022-10-12T16:24:18.414Z,78.30
2022-10-12T16:26:49.858Z,78.60
2022-10-12T16:29:17.623Z,79.20
2022-10-12T16:31:45.399Z,80.10
2022-10-12T16:34:13.205Z,80.60
2022-10-12T16:36:41.127Z,81.10
2022-10-12T16:39:08.912Z,82.10
2022-10-12T16:41:36.699Z,82.60
2022-10-12T16:44:05.872Z,83.00
2022-10-12T16:46:33.675Z,83.50
2022-10-12T16:49:01.450Z,83.80
2022-10-12T16:51:29.211Z,84.60
2022-10-12T16:53:57.969Z,85.30
2022-10-12T16:56:25.711Z,85.70
2022-10-12T16:58:53.545Z,86.40
2022-10-12T17:01:22.815Z,86.50
2022-10-12T17:03:50.611Z,86.80
2022-10-12T17:06:18.400Z,87.20
2022-10-12T17:08:46.202Z,87.80
2022-10-12T17:11:16.929Z,87.70
2022-10-12T17:13:48.957Z,88.90
2022-10-12T17:16:36.002Z,89.60
2022-10-12T17:19:05.395Z,91.80
2022-10-12T17:21:33.804Z,93.10
2022-10-12T17:24:02.135Z,94.90
2022-10-12T17:26:31.289Z,95.40
2022-10-12T17:28:59.072Z,95.40
2022-10-12T17:31:27.236Z,94.10
2022-10-12T17:33:55.190Z,93.40
2022-10-12T17:36:28.088Z,92.00
2022-10-12T17:38:57.444Z,91.90
2022-10-12T17:41:25.827Z,91.10
2022-10-12T17:43:53.684Z,91.80
2022-10-12T17:46:22.701Z,91.00
2022-10-12T17:48:50.809Z,91.10
2022-10-12T17:51:18.776Z,91.80
2022-10-12T17:53:47.916Z,91.40
2022-10-12T17:56:16.514Z,91.80
2022-10-12T17:58:44.911Z,92.60
2022-10-12T18:01:15.723Z,92.60
2022-10-12T18:03:46.467Z,93.00
2022-10-12T18:06:16.699Z,92.70
2022-10-12T18:08:45.302Z,93.30
2022-10-12T18:11:14.930Z,93.40
2022-10-12T18:13:47.048Z,92.90
2022-10-12T18:16:15.656Z,91.90
2022-10-12T18:18:43.993Z,92.40
2022-10-12T18:21:13.844Z,93.00
2022-10-12T18:23:41.886Z,93.40
2022-10-12T18:26:12.725Z,93.40
2022-10-12T18:28:42.162Z,93.60
2022-10-12T18:31:15.963Z,93.60
2022-10-12T18:33:43.723Z,92.80
2022-10-12T18:36:12.229Z,93.20
2022-10-12T18:38:40.123Z,93.10
2022-10-12T18:41:09.789Z,93.10
2022-10-12T18:43:38.500Z,94.60
2022-10-12T18:46:08.647Z,95.20
2022-10-12T18:48:36.612Z,94.70
2022-10-12T18:51:06.536Z,94.30
2022-10-12T18:53:34.686Z,94.90
2022-10-12T18:56:04.320Z,93.70
2022-10-12T18:58:32.401Z,95.10
2022-10-12T19:01:00.372Z,96.30
2022-10-12T19:03:29.700Z,98.20
2022-10-12T19:06:05.053Z,99.50
2022-10-12T19:08:32.883Z,99.90
2022-10-12T19:11:00.696Z,99.90
2022-10-12T19:13:28.483Z,99.90
2022-10-12T19:15:56.535Z,99.90
2022-10-12T19:18:24.303Z,99.90
2022-10-12T19:20:53.447Z,99.90
2022-10-12T19:23:21.201Z,99.90
2022-10-12T19:25:49.068Z,99.90
2022-10-12T19:28:16.901Z,99.90
2022-10-12T19:30:44.763Z,99.90
2022-10-12T19:33:12.579Z,99.90
2022-10-12T19:35:40.343Z,99.90
2022-10-12T19:38:09.433Z,99.90
2022-10-12T19:40:37.875Z,99.90
2022-10-12T19:43:06.843Z,99.90
2022-10-12T19:45:40.948Z,99.90
2022-10-12T19:48:09.500Z,99.90
2022-10-12T19:50:37.694Z,99.90
2022-10-12T19:53:05.895Z,99.90
2022-10-12T19:55:38.848Z,99.90
2022-10-12T19:58:07.408Z,99.90
2022-10-12T20:00:36.030Z,99.90
2022-10-12T20:03:04.086Z,99.90
2022-10-12T20:05:31.904Z,99.90
2022-10-12T20:07:59.683Z,99.90
2022-10-12T20:10:27.464Z,99.90
2022-10-12T20:12:56.564Z,99.90
2022-10-12T20:15:24.343Z,99.90
2022-10-12T20:17:52.134Z,99.90
2022-10-12T20:20:21.563Z,99.90
2022-10-12T20:22:49.393Z,99.90
2022-10-12T20:25:17.433Z,99.90
2022-10-12T20:27:45.205Z,99.90
2022-10-12T20:30:15.113Z,99.90
2022-10-12T20:32:42.885Z,99.90
2022-10-12T20:35:11.468Z,99.90
2022-10-12T20:37:39.333Z,99.90
2022-10-12T20:40:08.404Z,99.90
2022-10-12T20:42:36.581Z,99.90
2022-10-12T20:45:05.370Z,99.90
2022-10-12T20:47:34.509Z,99.90
2022-10-12T20:50:02.376Z,99.90
2022-10-12T20:52:30.317Z,99.90
2022-10-12T20:54:58.599Z,99.90
2022-10-12T20:57:26.399Z,99.90
2022-10-12T20:59:54.183Z,99.90
2022-10-12T21:02:21.992Z,99.90
2022-10-12T21:04:51.632Z,99.90
2022-10-12T21:07:20.444Z,99.90
2022-10-12T21:09:48.336Z,99.90
2022-10-12T21:12:16.510Z,99.90
2022-10-12T21:14:44.620Z,99.90
2022-10-12T21:17:12.570Z,99.90
2022-10-12T21:19:40.384Z,99.90
2022-10-12T21:22:09.524Z,99.90
2022-10-12T21:24:37.396Z,99.90
2022-10-12T21:27:05.660Z,99.90
2022-10-12T21:29:33.436Z,99.90
2022-10-12T21:32:01.460Z,99.90
2022-10-12T21:34:29.307Z,99.90
2022-10-12T21:36:57.161Z,99.90
2022-10-12T21:39:26.763Z,99.90
2022-10-12T21:41:54.539Z,99.90
2022-10-12T21:44:22.327Z,99.90
2022-10-12T21:46:50.108Z,99.90
2022-10-12T21:49:17.912Z,99.90
2022-10-12T21:51:45.753Z,99.90
2022-10-12T21:54:13.858Z,99.90
2022-10-12T21:56:42.987Z,99.90
2022-10-12T21:59:10.809Z,99.90
2022-10-12T22:01:40.250Z,99.90
2022-10-12T22:04:11.443Z,99.90
2022-10-12T22:06:39.588Z,99.90
2022-10-12T22:09:09.674Z,99.90
2022-10-12T22:11:38.420Z,99.90
2022-10-12T22:14:09.236Z,99.90
2022-10-12T22:16:37.614Z,99.90
2022-10-12T22:19:08.634Z,99.90
2022-10-12T22:21:37.182Z,99.90
2022-10-12T22:24:05.299Z,99.90
2022-10-12T22:26:33.588Z,99.90
2022-10-12T22:29:01.559Z,99.90
2022-10-12T22:31:30.797Z,99.90
2022-10-12T22:33:58.587Z,99.90
2022-10-12T22:36:26.377Z,99.90
2022-10-12T22:38:54.208Z,99.90
2022-10-12T22:41:24.156Z,99.90
2022-10-12T22:43:54.248Z,99.90
2022-10-12T22:46:23.663Z,99.90
2022-10-12T22:48:53.121Z,99.90
2022-10-12T22:51:25.407Z,99.90
2022-10-12T22:53:53.161Z,99.90
2022-10-12T22:56:21.081Z,99.90
2022-10-12T22:58:48.951Z,99.90
2022-10-12T23:01:18.368Z,99.90
2022-10-12T23:03:46.195Z,99.90
2022-10-12T23:06:16.370Z,99.90
2022-10-12T23:08:44.836Z,99.90
2022-10-12T23:11:14.288Z,99.90
2022-10-12T23:13:43.165Z,99.90
2022-10-12T23:16:13.686Z,99.90
2022-10-12T23:18:42.016Z,99.90
2022-10-12T23:21:12.313Z,99.90
2022-10-12T23:23:42.664Z,99.90
2022-10-12T23:26:13.011Z,99.90
2022-10-12T23:28:40.957Z,99.90
2022-10-12T23:31:10.703Z,99.90
2022-10-12T23:33:38.719Z,99.90
2022-10-12T23:36:08.723Z,99.90
2022-10-12T23:38:38.024Z,99.90
2022-10-12T23:41:07.967Z,99.90
2022-10-12T23:43:36.414Z,99.90
2022-10-12T23:46:05.481Z,99.90
2022-10-12T23:48:34.087Z,99.90
2022-10-12T23:51:02.010Z,99.90
2022-10-12T23:53:29.835Z,99.90
2022-10-12T23:55:57.645Z,99.90
2022-10-12T23:58:26.767Z,99.90
